createdAt,value
2023-01-25T00:06:52.043Z,2.70
2023-01-25T00:09:20.707Z,2.70
2023-01-25T00:11:50.161Z,2.70
2023-01-25T00:14:19.108Z,2.80
2023-01-25T00:16:47.032Z,2.80
2023-01-25T00:19:14.449Z,2.70
2023-01-25T00:21:42.084Z,2.50
2023-01-25T00:42:23.517Z,2.50
2023-01-25T00:44:50.967Z,2.80
2023-01-25T00:47:18.369Z,2.70
2023-01-25T00:49:47.515Z,2.70
2023-01-25T00:52:15.800Z,2.70
2023-01-25T00:54:43.309Z,2.80
2023-01-25T00:57:11.493Z,2.80
2023-01-25T01:04:26.186Z,2.60
2023-01-25T01:06:55.342Z,2.70
2023-01-25T01:09:24.109Z,2.60
2023-01-25T01:11:52.636Z,2.60
2023-01-25T01:14:21.201Z,2.60
2023-01-25T01:16:48.733Z,2.50
2023-01-25T01:19:16.885Z,2.50
2023-01-25T01:24:45.427Z,2.60
2023-01-25T01:27:13.355Z,2.60
2023-01-25T01:29:40.639Z,2.60
2023-01-25T01:32:08.038Z,2.60
2023-01-25T01:34:35.941Z,2.70
2023-01-25T01:37:04.402Z,2.60
2023-01-25T01:39:31.751Z,2.60
2023-01-25T01:47:06.333Z,2.80
2023-01-25T01:49:34.581Z,2.90
2023-01-25T01:52:07.556Z,2.80
2023-01-25T01:54:41.657Z,2.70
2023-01-25T01:57:14.882Z,2.60
2023-01-25T01:59:45.708Z,2.60
2023-01-25T02:02:16.685Z,2.70
2023-01-25T02:04:53.576Z,2.70
2023-01-25T02:10:02.657Z,2.70
2023-01-25T02:12:30.196Z,2.80
2023-01-25T02:14:57.504Z,2.60
2023-01-25T02:17:27.940Z,2.50
2023-01-25T02:20:01.859Z,2.60
2023-01-25T02:22:35.694Z,2.70
2023-01-25T02:25:06.862Z,2.60
2023-01-25T02:32:43.053Z,2.30
2023-01-25T02:35:20.286Z,2.30
2023-01-25T02:37:54.726Z,2.40
2023-01-25T02:40:23.710Z,2.40
2023-01-25T02:42:52.138Z,2.40
2023-01-25T02:48:08.913Z,2.50
2023-01-25T02:53:24.568Z,2.50
2023-01-25T02:55:52.256Z,2.70
2023-01-25T02:58:19.632Z,2.50
2023-01-25T03:00:47.068Z,2.60
2023-01-25T03:03:14.738Z,2.40
2023-01-25T03:05:42.335Z,2.10
2023-01-25T03:08:09.631Z,2.20
2023-01-25T03:15:48.195Z,2.30
2023-01-25T03:18:19.359Z,2.30
2023-01-25T03:20:48.237Z,2.30
2023-01-25T03:23:20.169Z,2.40
2023-01-25T03:25:52.288Z,2.60
2023-01-25T03:28:21.232Z,2.40
2023-01-25T03:30:55.204Z,2.10
2023-01-25T03:33:23.359Z,2.20
2023-01-25T03:41:01.659Z,2.20
2023-01-25T03:43:31.336Z,2.30
2023-01-25T03:46:02.533Z,2.30
2023-01-25T03:48:40.511Z,2.40
2023-01-25T03:51:08.822Z,2.40
2023-01-25T03:53:37.266Z,2.40
2023-01-25T03:56:08.605Z,2.40
2023-01-25T04:03:51.927Z,2.40
2023-01-25T04:06:19.590Z,2.40
2023-01-25T04:08:48.920Z,2.40
2023-01-25T04:14:59.604Z,2.50
2023-01-25T04:17:27.079Z,2.60
2023-01-25T04:20:01.168Z,2.60
2023-01-25T04:22:29.069Z,2.60
2023-01-25T04:32:40.948Z,2.50
2023-01-25T04:35:10.448Z,2.30
2023-01-25T04:37:38.183Z,2.30
2023-01-25T04:40:07.500Z,2.20
2023-01-25T04:42:35.048Z,2.30
2023-01-25T04:45:02.936Z,2.30
2023-01-25T04:47:33.258Z,2.20
2023-01-25T04:55:09.264Z,2.10
2023-01-25T04:57:37.876Z,2.10
2023-01-25T05:00:06.311Z,2.10
2023-01-25T05:02:34.249Z,2.20
2023-01-25T05:05:04.409Z,2.30
2023-01-25T05:07:31.873Z,2.30
2023-01-25T05:09:59.858Z,2.30
2023-01-25T05:17:34.321Z,2.30
2023-01-25T05:20:14.870Z,2.30
2023-01-25T05:22:42.355Z,2.60
2023-01-25T05:25:30.280Z,2.40
2023-01-25T05:27:56.977Z,2.30
2023-01-25T05:30:27.745Z,2.10
2023-01-25T05:33:05.054Z,2.10
2023-01-25T05:35:58.104Z,2.10
2023-01-25T05:38:39.013Z,2.00
2023-01-25T05:48:25.123Z,2.00
2023-01-25T05:50:53.391Z,2.10
2023-01-25T05:53:26.102Z,2.10
2023-01-25T05:55:53.441Z,2.20
2023-01-25T05:58:22.027Z,2.20
2023-01-25T06:00:52.044Z,2.20
2023-01-25T06:03:22.744Z,2.30
2023-01-25T06:08:48.332Z,2.30
2023-01-25T06:11:18.052Z,2.20
2023-01-25T06:13:45.855Z,2.20
2023-01-25T06:16:13.825Z,2.20
2023-01-25T06:18:41.370Z,2.00
2023-01-25T06:21:08.753Z,2.10
2023-01-25T06:23:39.844Z,2.00
2023-01-25T06:31:16.085Z,1.80
2023-01-25T06:33:48.489Z,1.80
2023-01-25T06:36:23.228Z,1.90
2023-01-25T06:38:53.457Z,1.90
2023-01-25T06:41:23.853Z,1.80
2023-01-25T06:43:56.468Z,2.10
2023-01-25T06:46:28.730Z,1.80
2023-01-25T06:49:26.169Z,1.90
2023-01-25T06:54:34.901Z,1.80
2023-01-25T06:57:03.904Z,2.00
2023-01-25T06:59:32.660Z,2.00
2023-01-25T07:02:01.007Z,2.30
2023-01-25T07:04:28.856Z,2.20
2023-01-25T07:06:56.918Z,2.00
2023-01-25T07:09:24.354Z,2.10
2023-01-25T07:16:59.004Z,2.00
2023-01-25T07:19:26.914Z,2.10
2023-01-25T07:21:54.322Z,2.10
2023-01-25T07:24:26.583Z,1.90
2023-01-25T07:26:54.085Z,2.00
2023-01-25T07:29:21.921Z,2.00
2023-01-25T07:31:49.364Z,1.80
2023-01-25T07:39:22.358Z,1.90
2023-01-25T07:41:49.591Z,2.10
2023-01-25T07:44:17.197Z,2.00
2023-01-25T07:46:44.655Z,2.00
2023-01-25T07:49:12.337Z,1.90
2023-01-25T07:51:40.173Z,1.90
2023-01-25T07:54:07.234Z,2.00
2023-01-25T08:01:41.771Z,2.00
2023-01-25T08:04:10.409Z,2.00
2023-01-25T08:06:40.047Z,1.90
2023-01-25T08:09:12.321Z,1.90
2023-01-25T08:11:39.891Z,2.00
2023-01-25T08:14:08.199Z,2.00
2023-01-25T08:16:40.035Z,2.10
2023-01-25T08:19:11.863Z,2.10
2023-01-25T08:26:06.334Z,1.90
2023-01-25T08:28:41.035Z,2.10
2023-01-25T08:31:14.361Z,2.00
2023-01-25T08:33:43.928Z,1.80
2023-01-25T08:36:17.523Z,1.80
2023-01-25T08:38:45.453Z,1.80
2023-01-25T08:41:29.085Z,1.90
2023-01-25T08:44:02.605Z,1.90
2023-01-25T08:51:36.363Z,2.00
2023-01-25T08:54:05.540Z,1.80
2023-01-25T08:56:33.512Z,1.80
2023-01-25T08:59:04.094Z,1.90
2023-01-25T09:01:57.831Z,1.70
2023-01-25T09:04:27.904Z,1.60
2023-01-25T09:06:56.545Z,1.70
2023-01-25T09:14:13.932Z,1.90
2023-01-25T09:16:42.454Z,2.00
2023-01-25T09:19:11.337Z,2.10
2023-01-25T09:21:40.338Z,2.10
2023-01-25T09:24:11.013Z,2.00
2023-01-25T09:26:44.549Z,2.00
2023-01-25T09:29:16.604Z,2.00
2023-01-25T09:36:49.534Z,2.10
2023-01-25T09:39:17.853Z,1.60
2023-01-25T09:42:21.493Z,1.80
2023-01-25T09:45:14.906Z,1.90
2023-01-25T09:48:01.458Z,2.10
2023-01-25T09:51:19.391Z,1.90
2023-01-25T09:53:50.870Z,1.60
2023-01-25T10:01:49.534Z,1.70
2023-01-25T10:04:31.261Z,1.90
2023-01-25T10:07:12.775Z,1.70
2023-01-25T10:09:44.071Z,1.70
2023-01-25T10:12:19.643Z,1.90
2023-01-25T10:14:51.157Z,2.30
2023-01-25T10:17:28.896Z,2.10
2023-01-25T10:25:54.422Z,2.10
2023-01-25T10:28:35.496Z,2.10
2023-01-25T10:31:06.485Z,2.10
2023-01-25T10:33:51.830Z,1.90
2023-01-25T10:36:28.276Z,1.90
2023-01-25T10:39:01.068Z,1.80
2023-01-25T10:41:37.214Z,1.90
2023-01-25T10:44:35.193Z,1.90
2023-01-25T11:03:48.524Z,2.10
2023-01-25T11:07:02.051Z,2.30
2023-01-25T11:09:51.000Z,2.50
2023-01-25T11:18:40.747Z,2.50
2023-01-25T11:21:24.817Z,2.40
2023-01-25T11:24:05.025Z,2.30
2023-01-25T11:26:39.236Z,2.30
2023-01-25T11:31:54.981Z,2.40
2023-01-25T11:34:26.851Z,2.20
2023-01-25T11:37:15.107Z,2.10
2023-01-25T11:39:55.341Z,2.20
2023-01-25T11:42:35.296Z,2.00
2023-01-25T11:45:25.433Z,2.20
2023-01-25T11:55:56.422Z,2.20
2023-01-25T11:59:06.320Z,2.50
2023-01-25T12:02:09.238Z,2.30
2023-01-25T12:04:53.919Z,2.30
2023-01-25T12:07:34.941Z,2.40
2023-01-25T12:10:31.915Z,2.40
2023-01-25T12:13:14.634Z,2.10
2023-01-25T12:30:29.927Z,2.10
2023-01-25T12:33:14.185Z,1.70
2023-01-25T12:35:49.691Z,2.00
2023-01-25T12:38:28.687Z,1.70
2023-01-25T12:41:05.032Z,1.20
2023-01-25T12:43:46.643Z,1.50
2023-01-25T12:46:33.079Z,1.90
2023-01-25T12:57:12.390Z,1.80
2023-01-25T12:59:55.557Z,1.90
2023-01-25T13:03:12.424Z,2.10
2023-01-25T13:05:47.287Z,2.00
2023-01-25T13:08:32.400Z,1.90
2023-01-25T13:11:15.186Z,2.10
2023-01-25T13:13:49.574Z,2.20
2023-01-25T13:25:23.768Z,2.40
2023-01-25T13:27:54.503Z,2.40
2023-01-25T13:30:51.132Z,2.40
2023-01-25T13:33:34.612Z,2.60
2023-01-25T13:36:39.105Z,2.60
2023-01-25T13:42:35.225Z,2.90
2023-01-25T13:45:18.605Z,2.70
2023-01-25T13:48:01.621Z,2.60
2023-01-25T13:50:37.692Z,2.40
2023-01-25T13:53:07.570Z,2.40
2023-01-25T13:55:43.695Z,2.50
2023-01-25T13:58:16.532Z,2.40
2023-01-25T14:00:51.165Z,2.40
2023-01-25T14:11:22.396Z,2.50
2023-01-25T14:14:00.800Z,2.50
2023-01-25T14:16:29.859Z,2.50
2023-01-25T14:19:19.648Z,2.50
2023-01-25T14:21:47.225Z,2.60
2023-01-25T14:24:18.989Z,2.80
2023-01-25T14:26:56.371Z,3.20
2023-01-25T14:29:32.601Z,3.30
2023-01-25T14:36:52.360Z,2.80
2023-01-25T14:39:31.067Z,2.50
2023-01-25T14:42:01.601Z,2.40
2023-01-25T14:44:34.332Z,2.30
2023-01-25T14:47:33.277Z,2.30
2023-01-25T14:50:32.969Z,2.30
2023-01-25T14:53:15.063Z,2.70
2023-01-25T14:55:46.125Z,2.70
2023-01-25T14:58:18.577Z,2.80
2023-01-25T15:03:46.145Z,2.40
2023-01-25T15:06:17.181Z,2.40
2023-01-25T15:09:00.310Z,2.40
2023-01-25T15:18:51.252Z,2.50
2023-01-25T15:28:47.748Z,2.30
2023-01-25T15:39:52.270Z,2.30
2023-01-25T15:42:20.022Z,2.30
2023-01-25T15:44:48.729Z,2.40
2023-01-25T15:47:20.045Z,2.40
2023-01-25T15:49:49.113Z,2.30
2023-01-25T15:52:17.492Z,2.30
2023-01-25T15:54:52.232Z,2.40
2023-01-25T16:00:21.070Z,2.40
2023-01-25T16:02:48.522Z,2.30
2023-01-25T16:05:16.701Z,2.30
2023-01-25T16:07:45.245Z,2.20
2023-01-25T16:10:23.084Z,2.00
2023-01-25T16:12:52.985Z,2.10
2023-01-25T16:18:02.630Z,2.00
2023-01-25T16:20:30.525Z,2.20
2023-01-25T16:22:59.225Z,2.20
2023-01-25T16:25:27.480Z,2.10
2023-01-25T16:27:56.752Z,2.10
2023-01-25T16:30:27.827Z,2.20
2023-01-25T16:32:56.132Z,2.30
2023-01-25T16:40:52.405Z,2.20
2023-01-25T16:43:42.873Z,2.30
2023-01-25T16:46:39.193Z,2.10
2023-01-25T16:49:17.139Z,2.20
2023-01-25T16:51:48.935Z,2.20
2023-01-25T16:54:45.441Z,2.00
2023-01-25T16:57:52.186Z,1.90
2023-01-25T17:00:30.597Z,1.90
2023-01-25T17:08:19.439Z,1.90
2023-01-25T17:10:58.355Z,1.80
2023-01-25T17:13:26.468Z,1.70
2023-01-25T17:15:57.733Z,1.80
2023-01-25T17:18:38.596Z,1.70
2023-01-25T17:21:23.158Z,1.90
2023-01-25T17:24:02.982Z,1.90
2023-01-25T17:36:32.322Z,1.70
2023-01-25T17:39:08.347Z,1.90
2023-01-25T17:41:43.084Z,1.60
2023-01-25T17:44:11.525Z,1.60
2023-01-25T17:46:40.140Z,1.80
2023-01-25T17:49:11.354Z,2.20
2023-01-25T17:51:47.931Z,2.20
2023-01-25T17:54:33.635Z,1.90
2023-01-25T17:57:04.548Z,1.90
2023-01-25T18:04:37.264Z,1.70
2023-01-25T18:07:06.875Z,1.60
2023-01-25T18:09:35.269Z,1.40
2023-01-25T18:12:03.134Z,1.50
2023-01-25T18:14:31.211Z,1.60
2023-01-25T18:17:00.202Z,1.90
2023-01-25T18:22:19.476Z,1.60
2023-01-25T18:24:48.918Z,1.60
2023-01-25T18:27:20.736Z,1.60
2023-01-25T18:30:02.063Z,0.90
2023-01-25T18:32:33.154Z,0.70
2023-01-25T18:35:01.543Z,1.00
2023-01-25T18:37:35.625Z,1.00
2023-01-25T18:45:32.489Z,0.90
2023-01-25T18:48:00.829Z,1.50
2023-01-25T18:50:35.600Z,1.50
2023-01-25T18:53:03.611Z,1.70
2023-01-25T18:55:38.112Z,1.80
2023-01-25T18:58:07.627Z,1.50
2023-01-25T19:00:36.560Z,1.40
2023-01-25T19:08:11.094Z,1.20
2023-01-25T19:10:39.623Z,1.20
2023-01-25T19:13:07.907Z,1.40
2023-01-25T19:15:36.942Z,1.50
2023-01-25T19:18:05.892Z,1.50
2023-01-25T19:20:34.388Z,1.60
2023-01-25T19:23:09.773Z,1.50
2023-01-25T19:30:51.828Z,1.60
2023-01-25T19:33:21.917Z,1.50
2023-01-25T19:35:50.755Z,1.20
2023-01-25T19:38:44.722Z,1.10
2023-01-25T19:41:13.690Z,1.10
2023-01-25T19:43:44.352Z,1.20
2023-01-25T19:46:58.515Z,1.40
2023-01-25T19:53:18.227Z,1.60
2023-01-25T19:59:14.609Z,1.70
2023-01-25T20:01:46.451Z,1.90
2023-01-25T20:04:22.935Z,1.80
2023-01-25T20:06:53.854Z,1.80
2023-01-25T20:09:29.592Z,1.90
2023-01-25T20:12:00.958Z,1.40
2023-01-25T20:14:31.762Z,0.60
2023-01-25T20:21:18.515Z,-0.30
2023-01-25T20:24:37.300Z,-0.20
2023-01-25T20:28:09.055Z,0.10
2023-01-25T20:30:37.374Z,0.00
2023-01-25T20:33:09.014Z,0.50
2023-01-25T20:35:40.629Z,0.30
2023-01-25T20:38:12.603Z,0.60
2023-01-25T20:40:43.388Z,0.50
2023-01-25T20:43:14.604Z,0.50
2023-01-25T20:50:49.915Z,0.70
2023-01-25T20:53:22.244Z,0.60
2023-01-25T20:55:57.819Z,0.90
2023-01-25T20:58:29.527Z,0.70
2023-01-25T21:00:58.399Z,1.00
2023-01-25T21:03:30.130Z,0.90
2023-01-25T21:06:04.419Z,1.00
2023-01-25T21:13:57.485Z,0.60
2023-01-25T21:16:25.392Z,1.00
2023-01-25T21:18:59.296Z,1.20
2023-01-25T21:22:09.180Z,0.80
2023-01-25T21:25:17.283Z,1.10
2023-01-25T21:27:54.124Z,1.00
2023-01-25T21:31:26.153Z,1.00
2023-01-25T21:34:43.963Z,0.80
2023-01-25T21:37:31.355Z,0.30
2023-01-25T21:40:38.682Z,0.30
2023-01-25T21:51:53.284Z,0.70
2023-01-25T21:54:26.330Z,0.90
2023-01-25T22:07:42.118Z,1.00
2023-01-25T22:10:38.988Z,1.20
2023-01-25T22:13:13.173Z,1.20
2023-01-25T22:20:44.205Z,1.20
2023-01-25T22:23:17.332Z,0.90
2023-01-25T22:25:47.511Z,0.80
2023-01-25T22:28:24.483Z,0.90
2023-01-25T22:30:52.508Z,1.10
2023-01-25T22:33:22.446Z,0.20
2023-01-25T22:35:50.762Z,0.00
2023-01-25T22:41:07.986Z,0.50
2023-01-25T22:43:37.033Z,1.30
2023-01-25T22:46:15.766Z,1.40
2023-01-25T22:51:41.536Z,1.40
2023-01-25T22:54:09.156Z,0.80
2023-01-25T22:56:37.714Z,0.80
2023-01-25T23:01:45.212Z,0.90
2023-01-25T23:04:12.292Z,0.90
2023-01-25T23:06:39.664Z,0.70
2023-01-25T23:09:07.300Z,0.60
2023-01-25T23:11:39.901Z,0.60
2023-01-25T23:14:30.929Z,0.70
2023-01-25T23:21:10.985Z,0.90
2023-01-25T23:23:40.345Z,0.80
2023-01-25T23:26:08.396Z,0.50
2023-01-25T23:29:14.677Z,0.50
2023-01-25T23:31:46.929Z,0.40
2023-01-25T23:34:15.495Z,0.50
2023-01-25T23:37:03.828Z,0.70
2023-01-25T23:39:37.546Z,0.70
2023-01-25T23:46:36.995Z,0.80
2023-01-25T23:49:04.485Z,1.10
2023-01-25T23:51:31.878Z,1.20
2023-01-25T23:54:00.130Z,0.50
2023-01-25T23:56:27.698Z,0.40
2023-01-25T23:59:10.007Z,0.60
